Time;durP1;ratioP1;P1;durP2;ratioP2;P2;SDS_P1;SDS_P2;PMS_P1;PMS_P2;Temp;Humidity;BMP_temperature;BMP_pressure;BME280_temperature;BME280_humidity;BME280_pressure;Samples;Min_cycle;Max_cycle;Signal;HPM_P1;HPM_P2
2023/07/29 00:02:08;;;;;;;2.05;1.60;;;19.60;99.90;;;;;;5004855;27;88339;-76
2023/07/29 00:04:34;;;;;;;3.42;1.73;;;19.50;99.90;;;;;;5003508;27;90577;-76
2023/07/29 00:06:59;;;;;;;4.90;2.40;;;19.50;99.90;;;;;;5004922;27;89430;-76
2023/07/29 00:09:25;;;;;;;18.75;2.55;;;19.60;99.90;;;;;;5006849;28;87837;-77
2023/07/29 00:11:50;;;;;;;2.55;1.58;;;19.60;99.90;;;;;;5006257;28;87475;-76
2023/07/29 00:14:16;;;;;;;5.65;1.80;;;19.60;99.90;;;;;;5007260;28;90277;-76
2023/07/29 00:16:42;;;;;;;5.18;1.55;;;19.60;99.90;;;;;;5004899;28;89809;-76
2023/07/29 00:19:08;;;;;;;4.00;1.80;;;19.60;99.90;;;;;;5004610;27;87949;-76
2023/07/29 00:21:34;;;;;;;4.55;1.88;;;19.60;99.90;;;;;;5005522;28;87790;-76
2023/07/29 00:24:01;;;;;;;3.60;1.90;;;19.60;99.90;;;;;;4987359;28;91922;-76
2023/07/29 00:26:28;;;;;;;4.68;2.70;;;19.60;99.90;;;;;;5004652;27;88368;-77
2023/07/29 00:28:55;;;;;;;2.88;2.10;;;19.60;99.90;;;;;;5006167;27;87077;-76
2023/07/29 00:31:20;;;;;;;3.30;1.63;;;19.60;99.90;;;;;;5005563;28;87124;-76
2023/07/29 00:33:46;;;;;;;5.15;1.80;;;19.70;99.90;;;;;;5005585;27;88601;-76
2023/07/29 00:36:11;;;;;;;4.28;1.75;;;19.70;99.90;;;;;;5006428;28;88322;-76
2023/07/29 00:38:37;;;;;;;3.50;1.60;;;19.70;99.90;;;;;;5003084;28;88793;-77
2023/07/29 00:41:03;;;;;;;2.92;1.85;;;19.70;99.90;;;;;;5006112;28;89201;-76
2023/07/29 00:43:29;;;;;;;5.57;1.88;;;19.70;99.90;;;;;;5003580;27;88442;-76
2023/07/29 00:45:57;;;;;;;3.92;1.85;;;19.70;99.90;;;;;;4999597;28;88091;-77
2023/07/29 00:48:23;;;;;;;3.80;1.70;;;19.70;99.90;;;;;;5001740;28;87913;-76
2023/07/29 00:50:49;;;;;;;8.13;1.83;;;19.70;99.90;;;;;;5000313;28;87559;-76
2023/07/29 00:53:15;;;;;;;2.25;2.05;;;19.70;99.90;;;;;;4999533;27;88084;-76
2023/07/29 00:55:42;;;;;;;4.78;2.20;;;19.70;99.90;;;;;;4981665;28;91752;-77
2023/07/29 00:58:07;;;;;;;2.55;2.15;;;19.70;99.90;;;;;;4999488;28;87125;-76
2023/07/29 01:00:33;;;;;;;3.47;2.28;;;19.70;99.90;;;;;;4998128;28;87415;-76
2023/07/29 01:02:59;;;;;;;2.80;1.67;;;19.70;99.90;;;;;;5003140;28;89871;-76
2023/07/29 01:05:33;;;;;;;4.28;2.58;;;19.70;99.90;;;;;;5003216;28;88968;-77
2023/07/29 01:08:27;;;;;;;5.10;2.90;;;19.70;99.90;;;;;;5006678;28;87548;-77
2023/07/29 01:11:03;;;;;;;2.77;2.23;;;19.70;99.90;;;;;;5004932;28;88324;-77
2023/07/29 01:13:41;;;;;;;4.95;2.10;;;19.70;99.90;;;;;;5003444;28;87901;-77
2023/07/29 01:16:16;;;;;;;4.47;1.90;;;19.70;99.90;;;;;;5005372;27;88348;-77
2023/07/29 01:18:45;;;;;;;5.10;1.77;;;19.60;99.90;;;;;;5003844;28;87633;-77
2023/07/29 01:21:13;;;;;;;5.10;1.23;;;19.60;99.90;;;;;;5005072;28;86911;-77
2023/07/29 01:23:38;;;;;;;1.92;1.10;;;19.60;99.90;;;;;;5004593;27;88605;-76
2023/07/29 01:26:04;;;;;;;1.95;1.00;;;19.50;99.90;;;;;;5005234;28;88341;-77
2023/07/29 01:28:31;;;;;;;2.95;1.10;;;19.60;99.90;;;;;;5003329;28;88539;-76
2023/07/29 01:31:23;;;;;;;2.20;0.88;;;19.50;99.90;;;;;;5003356;28;87378;-77
2023/07/29 01:34:16;;;;;;;7.35;1.63;;;19.50;99.90;;;;;;5004363;28;89227;-76
2023/07/29 01:36:42;;;;;;;3.50;1.20;;;19.50;99.90;;;;;;5003857;28;87925;-76
2023/07/29 01:39:11;;;;;;;2.85;1.10;;;19.50;99.90;;;;;;5005941;28;87481;-77
2023/07/29 01:41:37;;;;;;;3.47;1.30;;;19.50;99.90;;;;;;5003241;28;87317;-76
2023/07/29 01:44:03;;;;;;;6.10;1.30;;;19.50;99.90;;;;;;5003331;28;88429;-77
2023/07/29 01:46:29;;;;;;;2.50;1.00;;;19.50;99.90;;;;;;5003602;28;88434;-77
2023/07/29 01:48:54;;;;;;;6.90;1.55;;;19.50;99.90;;;;;;5004177;28;87619;-77
2023/07/29 01:51:21;;;;;;;3.30;1.48;;;19.50;99.90;;;;;;5006082;28;87888;-76
2023/07/29 01:53:46;;;;;;;3.53;1.20;;;19.50;99.90;;;;;;5004374;28;89266;-77
2023/07/29 01:56:12;;;;;;;2.47;1.45;;;19.40;99.90;;;;;;5003942;28;89266;-77
2023/07/29 01:58:38;;;;;;;4.68;1.75;;;19.40;99.90;;;;;;5003783;28;88059;-77
2023/07/29 02:01:03;;;;;;;3.25;1.00;;;19.30;99.90;;;;;;5005320;27;87509;-77
2023/07/29 02:03:29;;;;;;;4.82;1.40;;;19.30;99.90;;;;;;5004465;28;88687;-77
2023/07/29 02:05:55;;;;;;;2.40;1.10;;;19.30;99.90;;;;;;4984878;28;89589;-77
2023/07/29 02:08:20;;;;;;;5.07;1.33;;;19.30;99.90;;;;;;5004964;28;87881;-77
2023/07/29 02:10:46;;;;;;;2.55;1.30;;;19.20;99.90;;;;;;5003700;28;87652;-76
2023/07/29 02:13:12;;;;;;;2.67;0.95;;;19.30;99.90;;;;;;5001178;28;88684;-77
2023/07/29 02:15:38;;;;;;;4.78;1.13;;;19.20;99.90;;;;;;5004662;28;88062;-76
2023/07/29 02:18:03;;;;;;;3.58;1.50;;;19.20;99.80;;;;;;5002713;28;88531;-77
2023/07/29 02:20:29;;;;;;;3.25;1.40;;;19.20;99.80;;;;;;5001950;28;87461;-77
2023/07/29 02:22:55;;;;;;;6.70;1.30;;;19.10;99.80;;;;;;5003523;28;88499;-76
2023/07/29 02:25:20;;;;;;;4.03;1.30;;;19.10;99.70;;;;;;5004802;28;88333;-76
2023/07/29 02:27:46;;;;;;;3.67;1.40;;;19.10;99.60;;;;;;5004881;28;87531;-77
2023/07/29 02:30:12;;;;;;;4.32;1.10;;;19.00;99.60;;;;;;5003362;28;87870;-77
2023/07/29 02:32:38;;;;;;;1.25;0.90;;;19.00;99.20;;;;;;4985878;28;90820;-77
2023/07/29 02:35:04;;;;;;;3.10;0.90;;;19.00;99.30;;;;;;5001811;28;88229;-77
2023/07/29 02:37:30;;;;;;;6.32;1.27;;;18.90;99.10;;;;;;5004811;28;88051;-77
2023/07/29 02:39:56;;;;;;;2.00;0.95;;;18.90;99.30;;;;;;5003766;28;87839;-77
2023/07/29 02:42:21;;;;;;;1.83;1.00;;;18.90;99.10;;;;;;4986120;28;92677;-77
2023/07/29 02:44:47;;;;;;;2.30;1.17;;;18.90;99.10;;;;;;5002317;28;89244;-77
2023/07/29 02:47:12;;;;;;;4.25;1.27;;;18.90;99.00;;;;;;5002184;28;95005;-77
2023/07/29 02:49:38;;;;;;;2.40;0.85;;;18.80;99.10;;;;;;4986936;28;90210;-77
2023/07/29 02:52:04;;;;;;;3.80;0.93;;;18.80;99.20;;;;;;5003522;28;88426;-77
2023/07/29 02:54:30;;;;;;;4.10;1.27;;;18.80;99.30;;;;;;5003998;28;88291;-76
2023/07/29 02:56:56;;;;;;;1.13;0.98;;;18.70;99.40;;;;;;5002564;28;87214;-77
2023/07/29 02:59:21;;;;;;;4.32;1.13;;;18.70;99.30;;;;;;5003109;28;86886;-77
2023/07/29 03:01:47;;;;;;;4.82;1.00;;;18.70;99.20;;;;;;5002268;28;87843;-76
2023/07/29 03:04:15;;;;;;;3.65;1.23;;;18.60;99.00;;;;;;5002785;28;88446;-77
2023/07/29 03:06:42;;;;;;;1.27;0.90;;;18.60;98.90;;;;;;5001853;28;88541;-76
2023/07/29 03:09:08;;;;;;;6.38;1.60;;;18.60;98.80;;;;;;5003240;28;87896;-76
2023/07/29 03:11:33;;;;;;;1.67;1.00;;;18.50;98.80;;;;;;5004043;28;88665;-76
2023/07/29 03:14:00;;;;;;;5.95;1.67;;;18.40;98.80;;;;;;5003136;28;87890;-77
2023/07/29 03:16:26;;;;;;;2.33;1.20;;;18.40;98.80;;;;;;5003392;28;87671;-77
2023/07/29 03:18:51;;;;;;;1.83;1.20;;;18.40;98.80;;;;;;4991549;28;90557;-76
2023/07/29 03:21:17;;;;;;;2.88;1.13;;;18.40;98.90;;;;;;5004056;28;87667;-77
2023/07/29 03:23:42;;;;;;;4.25;1.40;;;18.30;99.00;;;;;;5002914;28;94811;-76
2023/07/29 03:26:11;;;;;;;2.55;1.23;;;18.20;99.10;;;;;;5001511;28;87503;-77
2023/07/29 03:28:42;;;;;;;2.72;1.25;;;18.20;99.30;;;;;;5005449;28;88067;-76
2023/07/29 03:31:07;;;;;;;1.48;1.08;;;18.10;99.30;;;;;;5000177;27;92779;-77
2023/07/29 03:33:33;;;;;;;3.75;1.17;;;18.10;99.30;;;;;;5006371;28;89729;-76
2023/07/29 03:35:59;;;;;;;3.30;1.48;;;18.10;99.40;;;;;;5006597;28;87602;-76
2023/07/29 03:38:25;;;;;;;2.30;1.23;;;18.10;99.50;;;;;;5005430;28;90942;-76
2023/07/29 03:40:51;;;;;;;6.55;1.42;;;18.10;99.50;;;;;;5004292;27;88772;-76
2023/07/29 03:43:16;;;;;;;6.38;1.58;;;18.10;99.50;;;;;;5007158;27;88201;-77
2023/07/29 03:45:42;;;;;;;4.38;1.40;;;18.10;99.40;;;;;;5005373;28;88003;-77
2023/07/29 03:48:08;;;;;;;1.38;1.13;;;18.00;99.40;;;;;;5005541;28;90668;-77
2023/07/29 03:50:35;;;;;;;3.15;1.10;;;18.00;99.40;;;;;;5005086;28;88623;-76
2023/07/29 03:53:02;;;;;;;5.53;1.20;;;18.00;99.50;;;;;;5004726;28;88458;-76
2023/07/29 03:55:29;;;;;;;4.63;1.58;;;17.90;99.50;;;;;;5005448;28;88538;-76
2023/07/29 03:57:59;;;;;;;2.08;1.48;;;17.90;99.60;;;;;;5005067;28;88186;-76
2023/07/29 04:00:24;;;;;;;2.85;1.33;;;17.90;99.80;;;;;;5006539;28;88234;-76
2023/07/29 04:02:50;;;;;;;3.10;1.40;;;17.80;99.80;;;;;;5007079;28;87705;-76
2023/07/29 04:05:16;;;;;;;2.53;1.23;;;17.80;99.80;;;;;;5008172;27;87690;-76
2023/07/29 04:07:42;;;;;;;3.00;1.35;;;17.80;99.90;;;;;;5006842;28;87891;-76
2023/07/29 04:10:08;;;;;;;7.13;1.55;;;17.80;99.70;;;;;;4987902;28;89357;-76
2023/07/29 04:12:33;;;;;;;7.72;1.38;;;17.70;99.70;;;;;;5006785;28;88043;-76
2023/07/29 04:14:59;;;;;;;5.22;1.60;;;17.70;99.70;;;;;;5006091;28;87675;-76
2023/07/29 04:17:25;;;;;;;2.33;1.55;;;17.70;99.70;;;;;;5005473;28;87617;-76
2023/07/29 04:19:50;;;;;;;4.80;1.30;;;17.70;99.90;;;;;;5005767;28;88759;-76
2023/07/29 04:22:16;;;;;;;2.58;1.23;;;17.70;99.90;;;;;;5004746;28;89202;-76
2023/07/29 04:24:42;;;;;;;4.85;1.52;;;17.70;99.90;;;;;;5005833;28;87527;-76
2023/07/29 04:27:08;;;;;;;3.75;1.90;;;17.70;99.90;;;;;;5007693;28;87741;-76
2023/07/29 04:29:35;;;;;;;1.80;1.25;;;17.70;99.90;;;;;;5004993;27;88665;-77
2023/07/29 04:32:04;;;;;;;4.88;1.98;;;17.60;99.90;;;;;;5007253;28;89142;-76
2023/07/29 04:34:30;;;;;;;4.30;1.70;;;17.60;99.90;;;;;;5005054;28;87938;-76
2023/07/29 04:36:56;;;;;;;2.97;1.90;;;17.50;99.90;;;;;;5006250;28;86905;-76
2023/07/29 04:39:21;;;;;;;7.35;1.90;;;17.50;99.90;;;;;;5006987;28;88670;-76
2023/07/29 04:41:47;;;;;;;2.55;1.50;;;17.50;99.90;;;;;;5005776;27;88010;-76
2023/07/29 04:44:12;;;;;;;2.40;1.60;;;17.40;99.90;;;;;;5004513;28;88235;-76
2023/07/29 04:46:38;;;;;;;3.25;1.80;;;17.40;99.90;;;;;;5005090;28;88173;-76
2023/07/29 04:49:04;;;;;;;8.35;1.80;;;17.40;99.90;;;;;;5004934;28;88207;-76
2023/07/29 04:51:31;;;;;;;1.67;1.20;;;17.40;99.90;;;;;;5005158;28;88188;-77
2023/07/29 04:53:57;;;;;;;3.58;1.40;;;17.40;99.90;;;;;;4987696;28;87785;-76
2023/07/29 04:56:23;;;;;;;7.97;2.17;;;17.40;99.90;;;;;;5003889;28;87709;-76
2023/07/29 04:58:48;;;;;;;2.95;1.90;;;17.40;99.90;;;;;;5005181;28;89194;-76
2023/07/29 05:01:14;;;;;;;5.22;2.17;;;17.40;99.90;;;;;;5004970;27;89028;-77
2023/07/29 05:03:39;;;;;;;4.68;1.92;;;17.40;99.90;;;;;;5003238;27;87576;-77
2023/07/29 05:06:05;;;;;;;8.20;1.98;;;17.40;99.90;;;;;;5006348;28;87713;-77
2023/07/29 05:08:31;;;;;;;2.10;1.85;;;17.40;99.90;;;;;;5004027;28;88880;-77
2023/07/29 05:10:57;;;;;;;2.55;1.83;;;17.40;99.90;;;;;;5003380;28;89376;-77
2023/07/29 05:13:23;;;;;;;5.15;1.63;;;17.40;99.90;;;;;;5005463;28;87845;-77
2023/07/29 05:15:49;;;;;;;7.20;1.83;;;17.40;99.90;;;;;;5004177;28;88102;-77
2023/07/29 05:18:16;;;;;;;2.92;1.50;;;17.40;99.90;;;;;;5004212;28;90006;-77
2023/07/29 05:20:41;;;;;;;7.60;2.08;;;17.40;99.90;;;;;;4985177;28;91098;-77
2023/07/29 05:23:07;;;;;;;2.60;1.65;;;17.50;99.90;;;;;;4986584;28;87845;-77
2023/07/29 05:25:34;;;;;;;1.80;1.45;;;17.50;99.90;;;;;;5003780;28;89209;-77
2023/07/29 05:28:00;;;;;;;7.55;2.00;;;17.50;99.90;;;;;;5003619;27;88827;-77
2023/07/29 05:30:27;;;;;;;2.88;1.30;;;17.50;99.90;;;;;;5004523;28;87923;-77
2023/07/29 05:32:52;;;;;;;4.97;1.67;;;17.60;99.90;;;;;;5002792;27;88567;-77
2023/07/29 05:35:18;;;;;;;4.13;1.70;;;17.60;99.90;;;;;;5004718;27;88004;-77
2023/07/29 05:37:43;;;;;;;3.72;1.50;;;17.70;99.90;;;;;;5005134;27;89122;-77
2023/07/29 05:40:10;;;;;;;5.22;1.40;;;17.70;99.90;;;;;;5003113;28;88065;-77
2023/07/29 05:42:36;;;;;;;3.10;1.60;;;17.70;99.90;;;;;;5005551;28;87551;-77
2023/07/29 05:45:02;;;;;;;3.83;1.63;;;17.70;99.80;;;;;;5003920;28;87730;-77
2023/07/29 05:47:27;;;;;;;6.38;2.10;;;17.70;99.90;;;;;;5004658;28;88639;-77
2023/07/29 05:49:54;;;;;;;3.38;1.40;;;17.70;99.90;;;;;;5006449;28;88760;-78
2023/07/29 05:52:19;;;;;;;3.05;1.50;;;17.70;99.90;;;;;;4986933;28;87447;-78
2023/07/29 05:54:45;;;;;;;5.60;1.40;;;17.80;99.90;;;;;;5004254;28;87786;-78
2023/07/29 05:57:12;;;;;;;4.65;2.08;;;17.80;99.90;;;;;;5004019;28;89508;-78
2023/07/29 05:59:38;;;;;;;7.00;2.80;;;17.80;99.90;;;;;;5004139;28;89186;-79
2023/07/29 06:02:04;;;;;;;7.13;3.25;;;17.80;99.90;;;;;;5006814;28;87836;-78
2023/07/29 06:04:29;;;;;;;7.75;3.65;;;17.80;99.90;;;;;;5002653;28;89785;-77
2023/07/29 06:06:55;;;;;;;7.82;2.72;;;17.90;99.90;;;;;;5005098;28;89189;-79
2023/07/29 06:09:22;;;;;;;5.47;2.03;;;17.80;99.90;;;;;;5006912;28;88122;-78
2023/07/29 06:11:48;;;;;;;4.50;1.67;;;17.90;99.90;;;;;;5003243;28;87665;-78
2023/07/29 06:14:13;;;;;;;5.22;1.67;;;17.90;99.90;;;;;;5003479;28;87211;-78
2023/07/29 06:16:39;;;;;;;5.60;1.67;;;18.00;99.80;;;;;;5003175;28;88569;-77
2023/07/29 06:19:05;;;;;;;4.30;1.38;;;18.00;99.80;;;;;;5005474;28;87780;-78
2023/07/29 06:21:30;;;;;;;4.65;1.75;;;18.00;99.90;;;;;;5004984;28;88484;-77
2023/07/29 06:23:56;;;;;;;5.25;1.52;;;18.10;99.90;;;;;;5004661;28;87832;-77
2023/07/29 06:26:22;;;;;;;3.08;1.38;;;18.10;99.90;;;;;;4984603;28;92453;-77
2023/07/29 06:28:47;;;;;;;4.90;1.67;;;18.20;99.90;;;;;;5002547;28;88093;-78
2023/07/29 06:31:13;;;;;;;2.25;1.50;;;18.20;99.90;;;;;;4987584;28;87685;-77
2023/07/29 06:33:44;;;;;;;2.95;1.40;;;18.30;99.60;;;;;;5003164;28;87649;-78
2023/07/29 06:36:10;;;;;;;4.65;1.58;;;18.40;99.40;;;;;;4986258;28;92329;-77
2023/07/29 06:38:36;;;;;;;5.72;1.10;;;18.40;99.40;;;;;;5004192;28;88215;-77
2023/07/29 06:41:02;;;;;;;7.57;1.55;;;18.50;98.50;;;;;;5002748;27;87530;-78
2023/07/29 06:43:28;;;;;;;2.60;0.90;;;18.60;98.60;;;;;;5004146;28;87637;-77
2023/07/29 06:45:53;;;;;;;5.93;1.23;;;18.60;98.10;;;;;;5003770;28;89237;-78
2023/07/29 06:48:20;;;;;;;15.68;2.00;;;18.60;98.00;;;;;;5004611;28;88968;-78
2023/07/29 06:50:45;;;;;;;3.50;1.10;;;18.70;98.20;;;;;;4983624;28;87607;-78
2023/07/29 06:53:11;;;;;;;1.73;1.08;;;18.80;97.50;;;;;;5005807;27;88001;-78
2023/07/29 06:55:36;;;;;;;7.20;1.40;;;18.80;97.50;;;;;;5003749;28;87023;-78
2023/07/29 06:58:02;;;;;;;5.70;1.20;;;18.80;97.30;;;;;;5005092;28;88484;-78
2023/07/29 07:00:28;;;;;;;3.13;0.88;;;18.90;97.40;;;;;;5006668;28;87541;-79
2023/07/29 07:02:53;;;;;;;3.67;0.98;;;18.90;97.00;;;;;;5006469;28;86991;-80
2023/07/29 07:05:20;;;;;;;1.38;0.80;;;19.00;96.70;;;;;;5002031;28;89030;-78
2023/07/29 07:07:45;;;;;;;3.90;1.10;;;19.10;96.20;;;;;;5000922;27;88929;-78
2023/07/29 07:10:11;;;;;;;3.55;0.82;;;19.10;96.50;;;;;;4982444;28;88562;-78
2023/07/29 07:12:37;;;;;;;4.57;1.02;;;19.20;96.10;;;;;;5002292;28;87764;-78
2023/07/29 07:15:02;;;;;;;2.00;1.00;;;19.30;96.20;;;;;;5000057;28;89363;-79
2023/07/29 07:17:28;;;;;;;1.67;0.93;;;19.30;96.00;;;;;;4984716;28;90832;-80
2023/07/29 07:19:54;;;;;;;5.13;0.90;;;19.40;95.80;;;;;;5002761;28;88365;-79
2023/07/29 07:22:19;;;;;;;2.55;0.90;;;19.50;95.90;;;;;;5002029;28;87786;-79
2023/07/29 07:24:45;;;;;;;6.50;0.98;;;19.50;95.50;;;;;;5002148;28;88325;-80
2023/07/29 07:27:10;;;;;;;5.32;1.08;;;19.50;95.20;;;;;;5006235;28;88826;-80
2023/07/29 07:29:36;;;;;;;3.30;0.98;;;19.50;95.30;;;;;;5004288;28;87774;-79
2023/07/29 07:32:02;;;;;;;4.03;0.80;;;19.60;95.30;;;;;;5004633;28;87688;-80
2023/07/29 07:34:27;;;;;;;2.35;1.10;;;19.60;95.40;;;;;;5004733;28;88970;-79
2023/07/29 07:36:53;;;;;;;2.53;0.90;;;19.60;95.00;;;;;;5003869;27;89226;-79
2023/07/29 07:39:19;;;;;;;4.25;0.75;;;19.70;95.20;;;;;;5003354;28;87814;-79
2023/07/29 07:41:44;;;;;;;1.70;0.88;;;19.70;95.20;;;;;;5003327;28;87652;-80
2023/07/29 07:44:12;;;;;;;2.38;0.80;;;19.80;94.70;;;;;;5004562;28;88953;-79
2023/07/29 07:46:38;;;;;;;1.92;0.77;;;19.80;94.80;;;;;;4986008;28;90246;-79
2023/07/29 07:49:04;;;;;;;2.08;0.80;;;19.90;93.90;;;;;;5003136;28;87564;-79
2023/07/29 07:51:29;;;;;;;2.42;0.85;;;19.90;94.70;;;;;;4995202;28;90718;-79
2023/07/29 07:53:55;;;;;;;3.58;1.20;;;20.00;94.70;;;;;;5003000;28;88970;-79
2023/07/29 07:56:21;;;;;;;1.70;0.90;;;20.10;93.80;;;;;;5003178;28;89132;-79
2023/07/29 07:58:46;;;;;;;1.90;1.00;;;20.20;93.40;;;;;;5002094;28;88591;-79
2023/07/29 08:01:12;;;;;;;5.57;1.15;;;20.20;93.50;;;;;;5003941;27;87863;-77
2023/07/29 08:03:37;;;;;;;1.70;0.90;;;20.20;93.40;;;;;;5005159;28;88672;-77
2023/07/29 08:06:04;;;;;;;6.50;0.90;;;20.20;93.50;;;;;;5002214;28;95018;-77
2023/07/29 08:08:29;;;;;;;3.00;0.90;;;20.30;94.30;;;;;;5002498;28;87688;-77
2023/07/29 08:10:56;;;;;;;2.47;0.70;;;20.30;94.00;;;;;;5003203;28;87509;-77
2023/07/29 08:13:23;;;;;;;1.25;0.93;;;20.40;92.70;;;;;;5001612;28;88421;-78
2023/07/29 08:15:50;;;;;;;2.58;1.10;;;20.50;93.00;;;;;;5003577;28;88416;-79
2023/07/29 08:18:16;;;;;;;2.65;1.00;;;20.40;92.40;;;;;;5004891;28;87830;-79
2023/07/29 08:20:52;;;;;;;1.73;0.70;;;20.50;92.50;;;;;;5005422;28;87973;-78
2023/07/29 08:23:18;;;;;;;2.97;0.60;;;20.60;93.10;;;;;;5000855;28;92994;-78
2023/07/29 08:25:43;;;;;;;5.53;0.75;;;20.80;92.00;;;;;;5006827;28;89288;-79
2023/07/29 08:28:11;;;;;;;3.05;0.75;;;20.90;91.90;;;;;;4987605;28;87699;-83
2023/07/29 08:30:39;;;;;;;1.55;0.80;;;21.00;91.90;;;;;;4991170;28;89257;-83
2023/07/29 08:33:05;;;;;;;2.03;0.80;;;21.10;90.20;;;;;;4989442;28;96886;-82
2023/07/29 08:35:30;;;;;;;2.90;1.10;;;21.00;90.70;;;;;;5007781;28;88209;-83
2023/07/29 08:37:56;;;;;;;2.42;0.90;;;21.10;91.30;;;;;;4987797;28;87519;-83
2023/07/29 08:40:29;;;;;;;3.47;1.33;;;21.10;90.70;;;;;;4987835;28;90539;-83
2023/07/29 08:42:58;;;;;;;1.95;0.85;;;21.20;91.60;;;;;;5021824;28;89523;-81
2023/07/29 08:45:24;;;;;;;2.00;0.77;;;21.20;91.30;;;;;;5005510;28;88754;-82
2023/07/29 08:47:57;;;;;;;1.73;0.75;;;21.20;90.30;;;;;;5020816;28;88627;-81
2023/07/29 08:50:24;;;;;;;5.43;1.50;;;21.30;91.10;;;;;;4987980;28;90427;-88
2023/07/29 08:52:52;;;;;;;8.27;1.83;;;21.30;90.20;;;;;;4988640;28;91953;-81
2023/07/29 08:55:18;;;;;;;1.42;1.10;;;21.30;90.50;;;;;;5007272;28;88443;-82
2023/07/29 08:57:45;;;;;;;0.85;0.60;;;21.40;91.30;;;;;;4996523;28;87954;-81
2023/07/29 09:00:11;;;;;;;5.57;0.90;;;21.50;91.30;;;;;;5008480;28;88014;-81
2023/07/29 09:02:37;;;;;;;2.22;0.70;;;21.70;90.70;;;;;;5005840;27;90688;-80
2023/07/29 09:05:02;;;;;;;12.93;1.10;;;21.90;90.30;;;;;;5000284;27;90991;-80
2023/07/29 09:07:29;;;;;;;2.70;0.80;;;22.00;91.40;;;;;;5021641;27;87045;-80
2023/07/29 09:09:54;;;;;;;2.17;0.70;;;22.20;90.80;;;;;;5005288;28;87683;-82
2023/07/29 09:12:20;;;;;;;2.88;0.93;;;22.30;89.50;;;;;;5005684;28;89340;-81
2023/07/29 09:14:46;;;;;;;3.50;0.80;;;22.40;88.80;;;;;;5005791;28;87582;-81
2023/07/29 09:17:13;;;;;;;1.13;0.85;;;22.50;86.80;;;;;;4986248;28;87629;-80
2023/07/29 09:19:39;;;;;;;2.80;1.10;;;22.60;88.10;;;;;;5003891;28;87683;-80
2023/07/29 09:22:05;;;;;;;3.05;0.80;;;22.70;88.20;;;;;;4985760;28;91514;-80
2023/07/29 09:24:32;;;;;;;1.58;0.88;;;22.80;87.50;;;;;;5006179;28;88494;-82
2023/07/29 09:26:57;;;;;;;6.28;0.80;;;22.90;87.10;;;;;;5006569;28;87522;-81
2023/07/29 09:29:23;;;;;;;4.93;0.80;;;22.90;88.50;;;;;;5020752;28;89382;-82
2023/07/29 09:31:49;;;;;;;3.30;0.82;;;23.00;88.90;;;;;;5005534;28;88302;-81
2023/07/29 09:34:17;;;;;;;5.03;0.77;;;23.10;87.60;;;;;;4988010;28;91035;-82
2023/07/29 09:36:43;;;;;;;2.50;0.77;;;23.20;87.10;;;;;;4989105;28;88586;-81
2023/07/29 09:39:15;;;;;;;1.77;0.93;;;23.40;86.20;;;;;;5007021;28;87953;-81
2023/07/29 09:41:41;;;;;;;2.88;1.05;;;23.40;84.60;;;;;;5022734;28;90114;-81
2023/07/29 09:44:07;;;;;;;4.03;1.40;;;23.30;84.70;;;;;;5004143;28;87549;-81
2023/07/29 09:46:37;;;;;;;3.88;0.65;;;23.10;83.00;;;;;;5004922;28;87645;-83
2023/07/29 09:49:04;;;;;;;3.58;1.00;;;23.00;84.90;;;;;;4986000;28;90690;-81
2023/07/29 09:51:30;;;;;;;1.38;0.85;;;23.00;84.50;;;;;;5017664;28;91624;-80
2023/07/29 09:53:55;;;;;;;2.33;0.82;;;23.10;85.30;;;;;;4985837;28;91537;-79
2023/07/29 09:56:30;;;;;;;1.77;0.70;;;23.10;83.70;;;;;;5002583;27;88028;-80
2023/07/29 09:58:57;;;;;;;1.27;0.88;;;23.20;85.40;;;;;;5003172;28;90128;-80
2023/07/29 10:01:23;;;;;;;1.17;0.90;;;23.40;86.60;;;;;;5000156;28;88713;-80
2023/07/29 10:03:49;;;;;;;1.25;0.52;;;23.60;84.50;;;;;;4986335;28;90710;-80
2023/07/29 10:06:17;;;;;;;1.85;0.82;;;23.90;85.10;;;;;;5006540;28;87275;-80
2023/07/29 10:08:43;;;;;;;2.15;0.98;;;24.20;84.30;;;;;;5006097;28;87703;-79
2023/07/29 10:11:10;;;;;;;2.10;0.90;;;24.50;80.10;;;;;;5008646;28;89535;-79
2023/07/29 10:13:37;;;;;;;3.72;0.73;;;24.40;78.90;;;;;;5003480;28;89084;-80
2023/07/29 10:16:04;;;;;;;7.38;0.77;;;24.20;78.00;;;;;;4994488;28;87823;-80
2023/07/29 10:18:31;;;;;;;4.20;1.55;;;24.20;78.50;;;;;;5004790;28;87602;-80
2023/07/29 10:20:59;;;;;;;1.85;0.70;;;24.20;78.30;;;;;;5005889;28;87941;-80
2023/07/29 10:23:26;;;;;;;1.30;0.70;;;24.30;78.20;;;;;;5002617;28;88503;-85
2023/07/29 10:26:05;;;;;;;1.27;0.70;;;24.30;79.80;;;;;;4986920;28;88683;-83
2023/07/29 10:28:34;;;;;;;3.22;0.80;;;24.40;80.00;;;;;;4986643;28;87546;-80
2023/07/29 10:31:00;;;;;;;3.55;1.05;;;24.40;76.80;;;;;;5005596;27;88425;-79
2023/07/29 10:33:26;;;;;;;3.08;1.15;;;24.30;76.90;;;;;;5006298;28;88212;-79
2023/07/29 10:35:55;;;;;;;5.55;0.80;;;24.30;77.70;;;;;;5005285;28;87533;-80
2023/07/29 10:38:23;;;;;;;2.05;1.02;;;24.30;78.40;;;;;;5006986;27;88105;-80
2023/07/29 10:40:56;;;;;;;1.73;0.90;;;24.40;76.90;;;;;;5003548;28;88793;-80
2023/07/29 10:43:24;;;;;;;;;;;24.30;78.00;;;;;;5004368;28;88476;-80
2023/07/29 10:45:50;;;;;;;2.92;1.13;;;24.30;76.80;;;;;;5021320;28;87718;-80
2023/07/29 10:48:36;;;;;;;4.05;0.90;;;24.20;77.80;;;;;;5005751;28;87395;-81
2023/07/29 10:51:33;;;;;;;1.48;0.70;;;24.10;78.40;;;;;;5002797;28;90040;-81
2023/07/29 10:54:02;;;;;;;2.33;1.10;;;24.10;79.20;;;;;;5004200;28;89970;-81
2023/07/29 10:56:34;;;;;;;2.63;1.00;;;24.20;79.60;;;;;;5005462;28;87342;-80
2023/07/29 10:59:32;;;;;;;3.33;0.88;;;24.50;81.10;;;;;;5004907;28;87540;-81
2023/07/29 11:01:59;;;;;;;1.85;0.80;;;24.80;81.70;;;;;;4986330;28;90607;-82
2023/07/29 11:04:26;;;;;;;2.63;1.40;;;25.00;77.50;;;;;;5005899;28;88765;-80
2023/07/29 11:07:28;;;;;;;1.10;0.75;;;25.10;79.40;;;;;;5005452;28;87660;-83
2023/07/29 11:09:59;;;;;;;1.73;0.88;;;25.10;77.30;;;;;;4983963;28;89140;-82
2023/07/29 11:12:45;;;;;;;1.38;0.80;;;25.20;77.10;;;;;;4986760;28;91717;-82
2023/07/29 11:15:18;;;;;;;3.25;0.82;;;25.10;77.00;;;;;;5001932;28;95472;-81
2023/07/29 11:17:47;;;;;;;0.90;0.80;;;25.00;77.50;;;;;;4994521;28;88939;-83
2023/07/29 11:20:14;;;;;;;2.25;1.02;;;24.80;78.00;;;;;;5003564;27;87793;-83
2023/07/29 11:22:39;;;;;;;3.95;1.15;;;24.60;77.70;;;;;;5004762;28;87617;-84
2023/07/29 11:25:07;;;;;;;1.80;0.98;;;24.50;80.10;;;;;;4985450;28;90056;-84
2023/07/29 11:27:33;;;;;;;2.08;0.93;;;24.30;82.90;;;;;;5006987;28;87845;-84
2023/07/29 11:30:02;;;;;;;1.58;1.00;;;24.20;82.60;;;;;;5003831;28;87397;-82
2023/07/29 11:32:28;;;;;;;1.23;0.88;;;24.00;81.20;;;;;;5001034;28;90596;-89
2023/07/29 11:34:53;;;;;;;6.07;1.05;;;23.80;82.80;;;;;;4988114;28;91278;-82
2023/07/29 11:37:20;;;;;;;1.90;1.00;;;23.70;85.00;;;;;;5005146;28;87932;-82
2023/07/29 11:39:46;;;;;;;3.20;1.13;;;23.60;85.50;;;;;;4986138;28;88069;-84
2023/07/29 11:42:14;;;;;;;2.10;1.15;;;23.60;86.60;;;;;;5006498;28;89452;-82
2023/07/29 11:44:40;;;;;;;4.10;1.10;;;23.50;87.20;;;;;;5002801;28;91773;-84
2023/07/29 11:47:10;;;;;;;4.13;1.35;;;23.50;88.80;;;;;;4986420;28;87272;-84
2023/07/29 11:49:38;;;;;;;5.28;1.30;;;23.50;90.20;;;;;;5000575;27;90183;-83
2023/07/29 11:52:05;;;;;;;8.40;1.67;;;23.40;90.70;;;;;;5001412;28;90570;-82
2023/07/29 11:54:31;;;;;;;5.13;2.05;;;23.20;90.90;;;;;;5022857;28;90900;-84
2023/07/29 11:56:57;;;;;;;5.05;1.77;;;23.00;91.30;;;;;;5024447;28;87516;-84
2023/07/29 11:59:23;;;;;;;5.80;1.92;;;22.60;91.70;;;;;;4990976;28;89222;-84
2023/07/29 12:01:49;;;;;;;4.57;1.88;;;22.30;93.10;;;;;;4988970;28;91250;-84
2023/07/29 12:04:15;;;;;;;5.93;1.83;;;22.20;94.10;;;;;;4991629;28;89712;-86
2023/07/29 12:06:41;;;;;;;2.33;1.40;;;22.30;95.80;;;;;;4997003;28;88154;-83
2023/07/29 12:09:08;;;;;;;3.08;1.40;;;22.40;94.90;;;;;;4990512;28;89187;-83
2023/07/29 12:11:34;;;;;;;3.67;1.80;;;22.50;95.10;;;;;;4990563;28;89545;-84
2023/07/29 12:14:00;;;;;;;3.65;1.30;;;22.70;94.20;;;;;;4991744;28;90472;-84
2023/07/29 12:16:26;;;;;;;3.47;1.67;;;22.80;93.40;;;;;;5025175;28;87783;-83
2023/07/29 12:18:52;;;;;;;2.35;1.13;;;22.90;92.80;;;;;;4985959;28;89490;-83
2023/07/29 12:21:43;;;;;;;12.48;2.35;;;22.80;92.20;;;;;;5005119;28;88672;-83
2023/07/29 12:24:08;;;;;;;5.43;1.85;;;22.60;92.60;;;;;;4987259;28;94062;-86
2023/07/29 12:26:35;;;;;;;4.22;2.08;;;22.30;92.70;;;;;;4984592;28;87778;-87
2023/07/29 12:29:15;;;;;;;11.60;2.45;;;22.20;93.40;;;;;;4988113;28;89655;-88
2023/07/29 12:31:40;;;;;;;14.38;2.90;;;22.10;94.20;;;;;;5001092;28;89978;-87
2023/07/29 12:34:06;;;;;;;9.25;2.80;;;21.70;94.40;;;;;;4989542;28;89573;-86
2023/07/29 12:36:43;;;;;;;6.50;2.55;;;21.30;95.10;;;;;;4987854;28;87255;-87
2023/07/29 12:39:20;;;;;;;6.28;2.63;;;21.10;95.60;;;;;;4988514;28;94051;-87
2023/07/29 12:41:46;;;;;;;6.40;2.10;;;21.10;96.50;;;;;;4986456;28;90379;-86
2023/07/29 12:44:12;;;;;;;4.32;1.77;;;21.10;96.10;;;;;;4987843;28;91210;-87
2023/07/29 12:46:37;;;;;;;5.72;1.70;;;21.20;97.00;;;;;;4988850;28;87126;-84
2023/07/29 12:49:03;;;;;;;2.95;1.40;;;21.40;96.90;;;;;;4991394;28;90214;-85